Time;durP1;ratioP1;P1;durP2;ratioP2;P2;SDS_P1;SDS_P2;PMS_P1;PMS_P2;Temp;Humidity;BMP_temperature;BMP_pressure;BME280_temperature;BME280_humidity;BME280_pressure;Samples;Min_cycle;Max_cycle;Signal;HPM_P1;HPM_P2
2022/01/04 00:01:36;;;;;;;25.88;13.68;;;8.40;99.90;;;;;;5021831;28;20077;-72
2022/01/04 00:04:02;;;;;;;31.75;14.45;;;8.40;99.90;;;;;;5033822;28;20561;-72
2022/01/04 00:06:27;;;;;;;25.95;12.98;;;8.40;99.90;;;;;;5015556;28;20049;-72
2022/01/04 00:08:59;;;;;;;37.47;14.20;;;8.40;99.90;;;;;;5023994;28;20047;-72
2022/01/04 00:11:44;;;;;;;30.10;14.30;;;8.40;99.90;;;;;;5016217;28;20110;-72
2022/01/04 00:14:10;;;;;;;29.77;13.60;;;8.40;99.90;;;;;;5023334;28;20048;-72
2022/01/04 00:16:36;;;;;;;26.23;12.90;;;8.40;99.90;;;;;;5018528;28;20496;-72
2022/01/04 00:19:03;;;;;;;29.58;13.07;;;8.40;99.90;;;;;;5037441;28;20037;-72
2022/01/04 00:21:32;;;;;;;27.00;12.43;;;8.40;99.90;;;;;;5023111;28;20053;-72
2022/01/04 00:23:57;;;;;;;28.13;12.43;;;8.40;99.90;;;;;;5036256;28;20045;-72
2022/01/04 00:26:23;;;;;;;35.13;14.00;;;8.40;99.90;;;;;;5038955;28;20037;-72
2022/01/04 00:28:49;;;;;;;30.20;13.07;;;8.40;99.90;;;;;;5030034;28;20051;-72
2022/01/04 00:31:15;;;;;;;24.80;13.25;;;8.40;99.90;;;;;;5018708;28;20179;-72
2022/01/04 00:33:40;;;;;;;29.40;13.65;;;8.40;99.90;;;;;;5027186;28;20068;-72
2022/01/04 00:36:06;;;;;;;34.75;13.32;;;8.40;99.90;;;;;;5023594;28;20048;-72
2022/01/04 00:38:32;;;;;;;29.58;13.23;;;8.40;99.90;;;;;;5047458;28;20052;-72
2022/01/04 00:40:59;;;;;;;36.83;12.73;;;8.40;99.90;;;;;;5036656;28;20049;-72
2022/01/04 00:43:25;;;;;;;32.10;13.88;;;8.40;99.90;;;;;;5027169;28;20110;-72
2022/01/04 00:45:52;;;;;;;33.58;13.30;;;8.30;99.90;;;;;;5028063;28;20128;-72
2022/01/04 00:50:45;;;;;;;30.30;13.05;;;8.30;99.90;;;;;;5040570;28;20045;-72
2022/01/04 00:53:12;;;;;;;32.55;13.02;;;8.30;99.90;;;;;;5012430;28;20044;-72
2022/01/04 00:55:38;;;;;;;36.00;15.05;;;8.30;99.90;;;;;;5040517;28;20052;-72
2022/01/04 00:58:05;;;;;;;25.98;13.85;;;8.30;99.90;;;;;;5040043;28;20041;-72
2022/01/04 01:00:31;;;;;;;33.53;13.68;;;8.30;99.90;;;;;;5038219;28;20041;-72
2022/01/04 01:02:57;;;;;;;29.00;13.32;;;8.30;99.90;;;;;;5042536;28;20507;-72
2022/01/04 01:05:25;;;;;;;26.23;13.23;;;8.30;99.90;;;;;;5036941;28;20442;-73
2022/01/04 01:07:53;;;;;;;30.88;14.18;;;8.30;99.90;;;;;;5043163;28;20049;-73
2022/01/04 01:13:03;;;;;;;26.60;13.88;;;8.30;99.90;;;;;;5043553;28;20134;-73
2022/01/04 01:15:29;;;;;;;28.15;14.43;;;8.40;99.90;;;;;;5002471;28;20504;-73
2022/01/04 01:17:55;;;;;;;24.38;13.70;;;8.40;99.90;;;;;;5024831;28;20045;-73
2022/01/04 01:20:21;;;;;;;33.97;14.88;;;8.40;99.90;;;;;;5025674;28;20080;-73
2022/01/04 01:22:47;;;;;;;31.85;14.75;;;8.40;99.90;;;;;;5023725;28;20095;-72
2022/01/04 01:25:13;;;;;;;28.05;15.38;;;8.40;99.90;;;;;;5025289;28;20956;-72
2022/01/04 01:27:40;;;;;;;30.80;15.85;;;8.50;99.90;;;;;;5028181;28;20040;-72
2022/01/04 01:30:07;;;;;;;29.95;16.77;;;8.40;99.90;;;;;;5028801;28;20041;-73
2022/01/04 01:32:33;;;;;;;31.65;16.88;;;8.50;99.90;;;;;;5041523;28;20053;-72
2022/01/04 01:35:00;;;;;;;29.17;16.67;;;8.40;99.90;;;;;;5024149;28;20799;-73
2022/01/04 01:37:26;;;;;;;30.92;16.75;;;8.40;99.90;;;;;;5025685;28;20102;-72
2022/01/04 01:39:52;;;;;;;32.67;15.43;;;8.40;99.90;;;;;;5025994;28;20088;-72
2022/01/04 01:42:18;;;;;;;32.50;15.82;;;8.40;99.90;;;;;;4993222;28;20630;-72
2022/01/04 01:44:43;;;;;;;30.77;15.57;;;8.30;99.90;;;;;;5023240;28;20084;-72
2022/01/04 01:47:09;;;;;;;31.52;15.30;;;8.30;99.90;;;;;;5008067;28;20041;-73
2022/01/04 01:49:35;;;;;;;32.58;16.23;;;8.30;99.90;;;;;;5037922;28;20705;-73
2022/01/04 01:52:01;;;;;;;26.83;15.25;;;8.30;99.90;;;;;;5039994;28;20068;-73
2022/01/04 01:54:27;;;;;;;33.45;16.15;;;8.30;99.90;;;;;;5019221;28;20487;-72
2022/01/04 01:56:53;;;;;;;35.17;18.13;;;8.30;99.90;;;;;;5041553;28;20057;-72
2022/01/04 01:59:19;;;;;;;28.45;15.63;;;8.30;99.90;;;;;;5043404;28;20380;-72
2022/01/04 02:01:45;;;;;;;32.20;17.23;;;8.20;99.90;;;;;;5045271;28;20060;-71
2022/01/04 02:04:11;;;;;;;31.92;16.60;;;8.20;99.90;;;;;;5045560;28;20056;-72
2022/01/04 02:06:37;;;;;;;32.20;16.65;;;8.30;99.90;;;;;;5043941;28;20036;-72
2022/01/04 02:09:04;;;;;;;32.63;16.30;;;8.20;99.90;;;;;;5044955;28;20402;-72
2022/01/04 02:11:31;;;;;;;37.28;16.30;;;8.30;99.90;;;;;;5044271;28;20124;-71
2022/01/04 02:14:01;;;;;;;30.98;15.82;;;8.30;99.90;;;;;;5045433;28;20179;-72
2022/01/04 02:16:31;;;;;;;32.05;17.42;;;8.30;99.90;;;;;;5042531;28;20048;-71
2022/01/04 02:19:05;;;;;;;;;;;8.20;99.90;;;;;;5042030;28;20057;-71
2022/01/04 02:21:32;;;;;;;36.58;16.77;;;8.20;99.90;;;;;;5040877;28;20343;-71
2022/01/04 02:23:58;;;;;;;40.40;18.70;;;8.10;99.90;;;;;;5028025;28;20057;-71
2022/01/04 02:26:25;;;;;;;36.72;18.88;;;8.10;99.90;;;;;;5027552;28;20529;-72
2022/01/04 02:28:52;;;;;;;37.22;17.92;;;8.10;99.90;;;;;;5028088;28;20089;-72
2022/01/04 02:31:18;;;;;;;37.05;19.85;;;8.10;99.90;;;;;;5026832;28;20797;-71
2022/01/04 02:33:44;;;;;;;33.15;18.65;;;8.10;99.90;;;;;;5043725;28;20060;-72
2022/01/04 02:36:09;;;;;;;38.17;18.48;;;8.00;99.90;;;;;;5045674;28;20074;-72
2022/01/04 02:38:37;;;;;;;40.50;19.40;;;8.00;99.90;;;;;;5028044;28;20114;-71
2022/01/04 02:41:03;;;;;;;34.33;19.85;;;8.00;99.90;;;;;;5026973;28;20049;-72
2022/01/04 02:43:29;;;;;;;37.78;19.08;;;8.00;99.90;;;;;;5010041;28;20045;-71
2022/01/04 02:45:55;;;;;;;34.78;19.63;;;8.00;99.90;;;;;;5027142;28;20111;-71
2022/01/04 02:48:21;;;;;;;37.67;19.52;;;8.10;99.90;;;;;;5043246;28;20120;-71
2022/01/04 02:50:47;;;;;;;40.25;19.63;;;8.10;99.90;;;;;;5026800;28;20060;-72
2022/01/04 02:53:12;;;;;;;36.03;19.15;;;8.10;99.90;;;;;;5011632;28;20033;-71
2022/01/04 02:55:38;;;;;;;39.65;19.25;;;8.00;99.90;;;;;;5029073;28;20140;-71
2022/01/04 02:58:04;;;;;;;38.70;19.95;;;8.00;99.90;;;;;;5044811;28;20045;-71
2022/01/04 03:00:30;;;;;;;43.45;21.20;;;8.00;99.90;;;;;;5042946;28;20052;-71
2022/01/04 03:02:56;;;;;;;36.65;19.13;;;8.00;99.90;;;;;;5040875;28;20121;-71
2022/01/04 03:05:22;;;;;;;41.30;19.65;;;8.00;99.90;;;;;;5008319;28;20041;-71
2022/01/04 03:07:48;;;;;;;40.13;20.85;;;8.10;99.90;;;;;;5044821;28;20132;-71
2022/01/04 03:10:16;;;;;;;41.72;21.95;;;8.10;99.90;;;;;;5043745;28;20043;-71
2022/01/04 03:12:43;;;;;;;40.03;20.27;;;8.10;99.90;;;;;;5037257;28;20045;-71
2022/01/04 03:15:11;;;;;;;41.88;21.50;;;8.10;99.90;;;;;;5025564;28;20111;-71
2022/01/04 03:17:36;;;;;;;39.17;21.27;;;8.10;99.90;;;;;;5035576;28;20503;-71
2022/01/04 03:20:03;;;;;;;38.97;21.35;;;8.20;99.90;;;;;;5041603;28;20049;-71
2022/01/04 03:23:00;;;;;;;40.50;23.13;;;8.10;99.90;;;;;;5042048;28;20044;-71
2022/01/04 03:25:26;;;;;;;34.80;23.08;;;8.20;99.90;;;;;;5022200;28;20136;-71
2022/01/04 03:27:52;;;;;;;40.83;23.35;;;8.20;99.90;;;;;;5040921;28;20491;-71
2022/01/04 03:30:18;;;;;;;38.58;22.67;;;8.30;99.90;;;;;;4990891;28;20043;-71
2022/01/04 03:32:44;;;;;;;44.45;21.98;;;8.30;99.90;;;;;;5040671;28;20110;-71
2022/01/04 03:35:12;;;;;;;41.38;22.85;;;8.20;99.90;;;;;;5040538;28;20045;-71
2022/01/04 03:37:38;;;;;;;34.72;20.95;;;8.30;99.90;;;;;;5040224;28;20668;-71
2022/01/04 03:40:05;;;;;;;40.17;22.85;;;8.30;99.90;;;;;;5024519;28;20074;-71
2022/01/04 03:42:31;;;;;;;36.80;22.25;;;8.30;99.90;;;;;;5040748;28;20136;-71
2022/01/04 03:44:57;;;;;;;42.45;22.55;;;8.30;99.90;;;;;;5040672;28;20460;-71
2022/01/04 03:47:23;;;;;;;40.67;22.67;;;8.30;99.90;;;;;;5022976;28;20539;-71
2022/01/04 03:49:49;;;;;;;36.80;21.15;;;8.30;99.90;;;;;;5036929;28;20132;-71
2022/01/04 03:52:15;;;;;;;41.13;21.55;;;8.30;99.90;;;;;;5040905;28;20128;-71
2022/01/04 03:54:41;;;;;;;40.08;21.88;;;8.30;99.90;;;;;;5007212;28;20136;-72
2022/01/04 03:57:07;;;;;;;34.65;21.65;;;8.30;99.90;;;;;;5040341;28;20044;-71
2022/01/04 03:59:32;;;;;;;37.83;21.85;;;8.30;99.90;;;;;;5039689;28;20191;-71
2022/01/04 04:02:01;;;;;;;38.00;21.92;;;8.30;99.90;;;;;;5039016;28;20064;-71
2022/01/04 04:04:27;;;;;;;43.05;22.25;;;8.30;99.90;;;;;;5039254;28;20052;-71
2022/01/04 04:06:53;;;;;;;38.42;22.48;;;8.30;99.90;;;;;;5040001;28;20583;-71
2022/01/04 04:09:19;;;;;;;36.63;22.58;;;8.30;99.90;;;;;;5039775;28;20132;-71
2022/01/04 04:11:45;;;;;;;48.20;22.92;;;8.30;99.90;;;;;;5040648;28;20496;-71
2022/01/04 04:14:10;;;;;;;36.25;21.77;;;8.30;99.90;;;;;;5040592;28;20045;-71
2022/01/04 04:16:36;;;;;;;34.05;22.52;;;8.40;99.90;;;;;;5023051;28;20052;-71
2022/01/04 04:19:02;;;;;;;42.70;22.80;;;8.40;99.90;;;;;;5038001;28;20535;-71
2022/01/04 04:21:31;;;;;;;34.97;20.88;;;8.40;99.90;;;;;;5005906;28;20099;-71
2022/01/04 04:23:57;;;;;;;35.13;21.33;;;8.40;99.90;;;;;;5023854;28;20193;-71
2022/01/04 04:26:22;;;;;;;40.85;24.02;;;8.40;99.90;;;;;;5039739;28;20502;-72
2022/01/04 04:28:48;;;;;;;41.63;21.75;;;8.40;99.90;;;;;;5040494;28;20337;-71
2022/01/04 04:31:14;;;;;;;40.45;22.73;;;8.40;99.90;;;;;;5040428;28;20045;-70
2022/01/04 04:33:40;;;;;;;35.50;21.45;;;8.40;99.90;;;;;;5024214;28;20049;-70
2022/01/04 04:36:08;;;;;;;43.33;23.17;;;8.40;99.90;;;;;;5040665;28;20447;-70
2022/01/04 04:38:33;;;;;;;42.20;22.80;;;8.40;99.90;;;;;;5039737;28;20539;-70
2022/01/04 04:40:59;;;;;;;46.22;24.55;;;8.40;99.90;;;;;;5023540;28;20044;-70
2022/01/04 04:43:25;;;;;;;43.45;23.83;;;8.40;99.90;;;;;;5022171;28;20048;-70
2022/01/04 04:45:51;;;;;;;52.88;25.85;;;8.40;99.90;;;;;;5023066;28;20142;-70
2022/01/04 04:48:17;;;;;;;41.42;24.45;;;8.30;99.90;;;;;;5038520;28;20072;-70
2022/01/04 04:50:47;;;;;;;40.30;24.08;;;8.30;99.90;;;;;;5038982;28;20148;-70
2022/01/04 04:53:13;;;;;;;47.47;26.95;;;8.30;99.90;;;;;;5037622;28;20040;-70
2022/01/04 04:55:38;;;;;;;50.22;24.77;;;8.40;99.90;;;;;;5040422;28;20048;-70
2022/01/04 04:58:04;;;;;;;42.17;24.50;;;8.30;99.90;;;;;;5040728;28;20049;-70
2022/01/04 05:00:30;;;;;;;43.65;24.08;;;8.30;99.90;;;;;;5020358;28;20129;-69
2022/01/04 05:02:56;;;;;;;40.10;25.35;;;8.30;99.90;;;;;;5022119;28;20052;-70
2022/01/04 05:05:21;;;;;;;46.40;26.08;;;8.30;99.90;;;;;;5006124;28;20068;-70
2022/01/04 05:07:47;;;;;;;42.03;25.05;;;8.30;99.90;;;;;;5057080;28;20056;-70
2022/01/04 05:10:13;;;;;;;45.10;24.70;;;8.30;99.90;;;;;;5042335;28;20111;-71
2022/01/04 05:12:39;;;;;;;50.65;26.42;;;8.30;99.90;;;;;;5045630;28;20047;-71
2022/01/04 05:15:05;;;;;;;52.80;28.80;;;8.30;99.90;;;;;;5029915;28;20043;-71
2022/01/04 05:17:31;;;;;;;45.17;27.00;;;8.30;99.90;;;;;;5040009;28;20684;-72
2022/01/04 05:19:58;;;;;;;44.20;26.65;;;8.20;99.90;;;;;;5028449;28;20057;-72
2022/01/04 05:22:23;;;;;;;50.63;27.80;;;8.20;99.90;;;;;;5044921;28;20047;-72
2022/01/04 05:24:49;;;;;;;45.45;26.75;;;8.20;99.90;;;;;;5028800;28;20052;-72
2022/01/04 05:27:15;;;;;;;36.45;24.15;;;8.10;99.90;;;;;;5029431;28;20048;-72
2022/01/04 05:29:41;;;;;;;40.83;25.10;;;8.10;99.90;;;;;;5045613;28;20045;-72
2022/01/04 05:32:07;;;;;;;41.13;26.30;;;8.10;99.90;;;;;;5012702;28;20162;-72
2022/01/04 05:34:33;;;;;;;46.50;25.15;;;8.10;99.90;;;;;;5011738;28;20057;-72
2022/01/04 05:37:00;;;;;;;41.20;25.58;;;8.10;99.90;;;;;;5029650;28;20056;-72
2022/01/04 05:39:26;;;;;;;43.08;25.15;;;8.10;99.90;;;;;;5045075;28;20751;-72
2022/01/04 05:41:52;;;;;;;47.25;26.48;;;8.10;99.90;;;;;;5045452;28;20048;-72
2022/01/04 05:44:17;;;;;;;41.85;26.60;;;8.00;99.90;;;;;;5043702;28;20521;-72
2022/01/04 05:46:43;;;;;;;47.92;25.15;;;8.10;99.90;;;;;;5026418;28;20047;-72
2022/01/04 05:49:09;;;;;;;45.63;25.65;;;8.10;99.90;;;;;;5029197;28;20106;-72
2022/01/04 05:51:38;;;;;;;44.70;25.33;;;8.10;99.90;;;;;;5027266;28;20479;-72
2022/01/04 05:54:04;;;;;;;50.15;26.10;;;8.10;99.90;;;;;;5046677;28;20116;-72
2022/01/04 05:56:31;;;;;;;50.95;27.10;;;8.10;99.90;;;;;;5045808;28;20509;-72
2022/01/04 05:58:57;;;;;;;44.47;27.20;;;8.10;99.90;;;;;;5045887;28;20051;-73
2022/01/04 06:01:23;;;;;;;50.50;27.92;;;8.10;99.90;;;;;;5032575;28;20049;-73
2022/01/04 06:03:51;;;;;;;46.05;26.70;;;8.10;99.90;;;;;;5025215;28;20868;-72
2022/01/04 06:06:20;;;;;;;48.22;27.55;;;8.10;99.90;;;;;;5014928;28;20103;-73
2022/01/04 06:08:46;;;;;;;46.47;27.25;;;8.00;99.90;;;;;;5045456;28;20107;-72
2022/01/04 06:11:31;;;;;;;44.88;27.38;;;8.10;99.90;;;;;;5045206;28;20048;-73
2022/01/04 06:16:59;;;;;;;50.40;27.58;;;8.10;99.90;;;;;;5026060;28;20057;-72
2022/01/04 06:19:25;;;;;;;47.13;28.70;;;8.10;99.90;;;;;;5017397;28;20089;-71
2022/01/04 06:21:52;;;;;;;48.63;27.40;;;8.10;99.90;;;;;;5009425;28;20044;-71
2022/01/04 06:24:17;;;;;;;43.13;26.30;;;8.10;99.90;;;;;;5028966;28;20048;-71
2022/01/04 06:26:44;;;;;;;41.13;24.20;;;8.10;99.90;;;;;;5030929;28;20383;-72
2022/01/04 06:29:11;;;;;;;38.92;23.45;;;8.20;99.90;;;;;;5025610;28;20044;-71
2022/01/04 06:31:41;;;;;;;43.55;25.65;;;8.20;99.90;;;;;;5043374;28;20393;-71
2022/01/04 06:34:07;;;;;;;40.50;25.48;;;8.20;99.90;;;;;;5047757;28;20111;-71
2022/01/04 06:36:33;;;;;;;40.95;25.02;;;8.10;99.90;;;;;;5046688;28;20049;-71
2022/01/04 06:38:59;;;;;;;39.25;23.23;;;8.10;99.90;;;;;;5046931;28;20577;-71
2022/01/04 06:41:25;;;;;;;38.83;22.48;;;8.10;99.90;;;;;;5030500;28;20128;-71
2022/01/04 06:43:51;;;;;;;43.67;25.88;;;8.10;99.90;;;;;;5047169;28;20084;-71
2022/01/04 06:46:17;;;;;;;45.92;26.15;;;8.10;99.90;;;;;;5048216;28;20061;-71
2022/01/04 06:48:42;;;;;;;45.97;27.10;;;8.10;99.90;;;;;;5011962;28;20048;-71
2022/01/04 06:51:09;;;;;;;54.40;29.17;;;8.10;99.90;;;;;;5046900;28;20583;-71
2022/01/04 06:53:35;;;;;;;54.58;29.42;;;8.00;99.90;;;;;;5045385;28;20040;-71
2022/01/04 06:56:01;;;;;;;43.85;27.58;;;8.00;99.90;;;;;;5029096;28;20048;-71
2022/01/04 06:58:26;;;;;;;53.05;29.23;;;8.00;99.90;;;;;;5026381;28;20560;-71
2022/01/04 07:00:52;;;;;;;50.47;28.63;;;8.00;99.90;;;;;;5027279;28;20136;-71
2022/01/04 07:03:18;;;;;;;50.17;29.40;;;8.00;99.90;;;;;;5028087;28;20067;-71
2022/01/04 07:05:44;;;;;;;48.80;29.02;;;8.00;99.90;;;;;;5044826;28;20403;-71
2022/01/04 07:08:10;;;;;;;52.17;29.38;;;8.00;99.90;;;;;;5029286;28;20054;-71
2022/01/04 07:10:36;;;;;;;53.97;32.25;;;8.00;99.90;;;;;;5045968;28;20235;-71
2022/01/04 07:13:02;;;;;;;56.55;32.65;;;8.00;99.90;;;;;;5030670;28;20458;-71
2022/01/04 07:15:28;;;;;;;63.00;32.08;;;8.00;99.90;;;;;;5030098;28;20041;-71
2022/01/04 07:17:53;;;;;;;55.50;32.53;;;8.00;99.90;;;;;;5028706;28;20076;-71
2022/01/04 07:20:19;;;;;;;55.45;33.08;;;8.00;99.90;;;;;;4990773;28;20045;-71
2022/01/04 07:22:45;;;;;;;49.08;32.72;;;8.00;99.90;;;;;;5030134;28;20819;-72
2022/01/04 07:25:11;;;;;;;54.47;33.78;;;8.00;99.90;;;;;;5044275;28;20048;-73
2022/01/04 07:27:37;;;;;;;44.67;28.80;;;8.00;99.90;;;;;;5039575;28;20049;-72
2022/01/04 07:30:04;;;;;;;40.55;26.35;;;8.10;99.90;;;;;;5029758;28;20044;-72
2022/01/04 07:32:30;;;;;;;36.63;24.50;;;8.00;99.90;;;;;;5045755;28;20052;-72
2022/01/04 07:34:56;;;;;;;37.28;26.00;;;8.00;99.90;;;;;;5029374;28;20449;-73
2022/01/04 07:37:23;;;;;;;33.10;21.88;;;8.10;99.90;;;;;;5045415;28;20045;-72
2022/01/04 07:39:50;;;;;;;29.90;20.92;;;8.10;99.90;;;;;;5030171;28;20169;-71
2022/01/04 07:42:16;;;;;;;32.75;22.33;;;8.00;99.90;;;;;;5046219;28;20048;-72
2022/01/04 07:44:41;;;;;;;33.22;22.60;;;8.00;99.90;;;;;;5045480;28;20106;-73
2022/01/04 07:47:07;;;;;;;33.72;22.98;;;8.00;99.90;;;;;;5043975;28;20049;-72
2022/01/04 07:49:33;;;;;;;41.00;27.08;;;8.00;99.90;;;;;;5011437;28;20037;-72
2022/01/04 07:51:59;;;;;;;44.60;27.02;;;8.00;99.90;;;;;;5009723;28;20053;-73
2022/01/04 07:54:25;;;;;;;47.40;30.35;;;8.00;99.90;;;;;;5031763;28;20085;-72
2022/01/04 07:56:55;;;;;;;54.58;34.10;;;8.00;99.90;;;;;;5008386;28;20143;-71
2022/01/04 07:59:21;;;;;;;60.70;34.58;;;8.00;99.90;;;;;;5018784;28;20124;-71
2022/01/04 08:01:47;;;;;;;56.95;34.83;;;8.00;99.90;;;;;;5023649;28;20056;-71
2022/01/04 08:04:13;;;;;;;59.47;34.67;;;8.00;99.90;;;;;;5035869;28;20041;-71
2022/01/04 08:06:41;;;;;;;54.08;32.65;;;8.10;99.90;;;;;;5028144;28;20178;-71
2022/01/04 08:09:07;;;;;;;54.05;34.00;;;8.00;99.90;;;;;;5026968;28;20150;-72
2022/01/04 08:11:33;;;;;;;48.70;31.13;;;8.00;99.90;;;;;;5027202;28;20088;-72
2022/01/04 08:13:59;;;;;;;45.92;31.13;;;8.00;99.90;;;;;;5039724;28;20106;-72
2022/01/04 08:16:25;;;;;;;43.92;29.38;;;8.00;99.90;;;;;;5039908;28;20141;-73
2022/01/04 08:18:50;;;;;;;48.50;30.00;;;8.00;99.90;;;;;;5033878;28;20057;-72
2022/01/04 08:21:16;;;;;;;43.30;28.88;;;8.00;99.90;;;;;;5034122;28;20666;-72
2022/01/04 08:23:42;;;;;;;49.20;30.10;;;8.00;99.90;;;;;;5029947;28;20035;-72
2022/01/04 08:26:11;;;;;;;50.47;30.55;;;8.00;99.90;;;;;;5025324;28;20879;-73
2022/01/04 08:28:36;;;;;;;48.88;31.65;;;8.00;99.90;;;;;;5024294;28;20586;-73
2022/01/04 08:31:02;;;;;;;48.42;30.88;;;8.00;99.90;;;;;;5043682;28;20044;-72
2022/01/04 08:33:31;;;;;;;53.38;31.60;;;7.90;99.90;;;;;;5039237;28;20052;-73
2022/01/04 08:35:57;;;;;;;55.97;32.35;;;7.90;99.90;;;;;;5009209;28;20496;-73
2022/01/04 08:38:23;;;;;;;57.10;33.10;;;8.00;99.90;;;;;;5042603;28;20048;-73
2022/01/04 08:40:49;;;;;;;56.15;33.05;;;8.00;99.90;;;;;;5009724;28;20053;-72
2022/01/04 08:43:16;;;;;;;51.03;31.77;;;8.00;99.90;;;;;;5020023;28;20049;-72
2022/01/04 08:45:42;;;;;;;31.25;19.42;;;8.00;99.90;;;;;;5035419;28;20067;-72
2022/01/04 08:48:11;;;;;;;12.82;5.55;;;8.00;99.90;;;;;;5033478;28;20057;-72
2022/01/04 08:50:37;;;;;;;12.13;5.10;;;7.90;99.90;;;;;;5013121;28;20450;-72
2022/01/04 08:53:03;;;;;;;8.63;3.80;;;7.80;99.90;;;;;;5026245;28;20054;-72
2022/01/04 08:55:32;;;;;;;8.00;2.92;;;7.60;99.90;;;;;;5017104;28;20060;-73
2022/01/04 08:57:57;;;;;;;10.68;3.50;;;7.40;99.90;;;;;;5023388;28;20086;-72
2022/01/04 09:00:26;;;;;;;8.32;3.10;;;7.30;99.90;;;;;;5017761;28;20043;-72
2022/01/04 09:02:52;;;;;;;9.90;3.38;;;7.20;99.90;;;;;;5014654;28;20107;-72
2022/01/04 09:05:18;;;;;;;9.43;3.90;;;7.10;99.90;;;;;;5020521;28;20045;-72
2022/01/04 09:07:43;;;;;;;12.30;4.32;;;7.00;99.90;;;;;;5007103;28;20120;-72
2022/01/04 09:10:09;;;;;;;12.07;4.70;;;7.00;99.90;;;;;;5004687;28;20072;-72
2022/01/04 09:12:45;;;;;;;11.32;4.43;;;6.90;99.90;;;;;;5002863;28;20044;-72
2022/01/04 09:20:41;;;;;;;10.63;4.05;;;7.00;99.90;;;;;;5035759;28;20056;-72
2022/01/04 09:23:07;;;;;;;10.27;3.53;;;7.00;99.90;;;;;;5050081;28;20037;-72
2022/01/04 09:25:33;;;;;;;12.38;3.65;;;7.10;99.90;;;;;;5015901;28;20098;-72
2022/01/04 09:28:03;;;;;;;11.40;4.38;;;7.10;99.90;;;;;;5034233;28;20079;-72
2022/01/04 09:30:29;;;;;;;18.15;5.32;;;7.10;99.90;;;;;;5026208;28;20041;-72
2022/01/04 09:32:55;;;;;;;18.50;5.47;;;7.10;99.90;;;;;;5021810;28;20466;-72
2022/01/04 09:35:20;;;;;;;13.68;5.28;;;7.10;99.90;;;;;;5030351;28;20037;-72
2022/01/04 09:37:46;;;;;;;15.90;5.82;;;7.20;99.90;;;;;;5022165;28;20049;-71
2022/01/04 09:40:12;;;;;;;20.00;6.15;;;7.20;99.90;;;;;;5048532;28;20074;-70
2022/01/04 09:42:39;;;;;;;16.90;6.70;;;7.30;99.90;;;;;;5040392;28;20408;-70
2022/01/04 09:45:06;;;;;;;21.92;7.57;;;7.30;99.90;;;;;;5031303;28;20046;-70
2022/01/04 09:47:32;;;;;;;18.13;7.82;;;7.40;99.90;;;;;;5034915;28;20120;-71
2022/01/04 09:50:08;;;;;;;18.33;8.27;;;7.40;99.90;;;;;;5019526;28;20132;-70
2022/01/04 09:52:38;;;;;;;27.67;11.07;;;7.40;99.90;;;;;;5036820;28;20041;-70
2022/01/04 09:55:04;;;;;;;25.25;10.95;;;7.50;99.90;;;;;;5037668;28;20095;-70
2022/01/04 09:57:30;;;;;;;25.52;10.98;;;7.50;99.90;;;;;;5034712;28;20057;-70
2022/01/04 09:59:56;;;;;;;21.95;9.55;;;7.50;99.90;;;;;;5031442;28;20053;-70
2022/01/04 10:02:26;;;;;;;27.00;10.73;;;7.50;99.90;;;;;;5029574;28;20041;-70
2022/01/04 10:04:52;;;;;;;27.65;10.73;;;7.50;99.90;;;;;;5046823;28;20109;-70
2022/01/04 10:07:23;;;;;;;20.38;8.05;;;7.50;99.90;;;;;;5058534;28;20041;-70
2022/01/04 10:09:52;;;;;;;21.92;7.68;;;7.50;99.90;;;;;;5027945;28;20420;-70
2022/01/04 10:12:23;;;;;;;26.73;7.50;;;7.40;99.90;;;;;;5036468;28;20060;-70
2022/01/04 10:14:51;;;;;;;17.02;5.20;;;7.40;99.90;;;;;;5035153;28;20041;-70
2022/01/04 10:17:35;;;;;;;14.40;3.85;;;7.40;99.90;;;;;;5037275;28;20049;-70
2022/01/04 10:20:02;;;;;;;8.43;2.13;;;7.40;99.90;;;;;;5025184;28;20045;-72
2022/01/04 10:22:35;;;;;;;7.95;1.92;;;7.30;99.90;;;;;;5029153;28;20052;-70
2022/01/04 10:25:00;;;;;;;10.07;2.70;;;7.30;99.90;;;;;;5030079;28;20447;-71
2022/01/04 10:27:26;;;;;;;9.00;2.63;;;7.20;99.90;;;;;;5048119;28;20045;-70
2022/01/04 10:30:25;;;;;;;11.85;3.67;;;7.10;99.90;;;;;;5030637;28;20061;-70
2022/01/04 10:33:04;;;;;;;8.20;3.47;;;7.10;99.90;;;;;;5047077;28;20684;-70
2022/01/04 10:35:42;;;;;;;7.55;2.20;;;7.00;99.90;;;;;;5030863;28;20887;-70
2022/01/04 10:38:13;;;;;;;12.73;7.35;;;7.00;99.90;;;;;;5033497;28;20521;-70
2022/01/04 10:40:44;;;;;;;11.15;4.97;;;6.90;99.90;;;;;;5019833;28;20053;-72
2022/01/04 10:43:36;;;;;;;6.68;4.10;;;6.90;99.90;;;;;;5020524;28;20041;-72
2022/01/04 10:46:03;;;;;;;8.15;4.88;;;6.90;99.90;;;;;;5021702;28;20049;-72
2022/01/04 10:48:31;;;;;;;6.38;1.88;;;6.80;99.90;;;;;;5037487;28;20165;-72
2022/01/04 10:51:16;;;;;;;8.40;1.92;;;6.80;99.90;;;;;;5010940;28;20545;-72
2022/01/04 10:53:49;;;;;;;7.63;2.58;;;6.80;99.90;;;;;;5026090;28;20429;-72
2022/01/04 10:56:24;;;;;;;7.57;1.85;;;6.80;99.90;;;;;;5038448;28;20492;-72
2022/01/04 10:58:51;;;;;;;5.72;1.88;;;6.80;99.90;;;;;;5035028;28;20133;-72
2022/01/04 11:01:20;;;;;;;5.85;2.05;;;6.70;99.90;;;;;;5042141;28;20049;-72
2022/01/04 11:03:54;;;;;;;7.18;2.13;;;6.70;99.90;;;;;;5039324;28;20444;-72
2022/01/04 11:06:30;;;;;;;7.82;2.08;;;6.60;99.90;;;;;;5014005;28;20053;-72
2022/01/04 11:08:56;;;;;;;8.82;2.35;;;6.60;99.90;;;;;;5043139;28;20057;-72
2022/01/04 11:11:22;;;;;;;7.70;2.15;;;6.60;99.90;;;;;;5030165;28;20041;-73
2022/01/04 11:13:51;;;;;;;6.25;2.20;;;6.60;99.90;;;;;;5025582;28;20290;-73
2022/01/04 11:16:19;;;;;;;8.23;2.10;;;6.60;99.90;;;;;;5036374;28;20044;-73
2022/01/04 11:18:50;;;;;;;4.68;1.00;;;6.70;99.90;;;;;;5000599;28;20037;-73
2022/01/04 11:21:37;;;;;;;5.93;1.00;;;6.60;99.90;;;;;;5046587;28;20384;-73
2022/01/04 11:24:06;;;;;;;4.40;0.77;;;6.60;99.90;;;;;;5040655;28;20128;-72
2022/01/04 11:26:32;;;;;;;4.38;0.70;;;6.40;99.90;;;;;;5013404;28;20053;-72
2022/01/04 11:28:59;;;;;;;2.65;0.60;;;6.30;99.90;;;;;;5028565;28;20056;-72
2022/01/04 11:31:54;;;;;;;4.07;0.70;;;6.20;99.90;;;;;;5023978;28;20080;-72
2022/01/04 11:35:03;;;;;;;5.95;0.90;;;6.10;99.90;;;;;;5055207;28;20702;-72
2022/01/04 11:37:29;;;;;;;4.60;0.83;;;6.00;99.90;;;;;;5029677;28;20041;-72
2022/01/04 11:39:56;;;;;;;3.63;0.73;;;6.00;99.90;;;;;;5010271;28;20124;-72
2022/01/04 11:42:34;;;;;;;7.43;1.35;;;6.00;99.90;;;;;;5043535;28;20484;-72
2022/01/04 11:45:01;;;;;;;4.80;1.63;;;6.00;99.90;;;;;;5056559;28;20064;-71
2022/01/04 11:47:29;;;;;;;7.30;1.92;;;6.00;99.90;;;;;;5044027;28;20041;-72
2022/01/04 11:50:16;;;;;;;4.30;1.30;;;6.00;99.90;;;;;;5024913;28;20107;-72
2022/01/04 11:52:45;;;;;;;6.07;1.83;;;6.00;99.90;;;;;;5009100;28;20095;-72
2022/01/04 11:55:30;;;;;;;4.87;1.97;;;6.00;99.90;;;;;;5053791;28;20064;-72
2022/01/04 11:58:02;;;;;;;5.63;1.40;;;6.00;99.90;;;;;;5044461;28;20361;-72
2022/01/04 12:00:34;;;;;;;7.13;1.40;;;6.00;99.90;;;;;;5030676;28;20052;-72
2022/01/04 12:03:11;;;;;;;6.43;1.60;;;6.00;99.90;;;;;;5025839;28;20068;-72
2022/01/04 12:05:59;;;;;;;7.87;2.17;;;6.00;99.90;;;;;;5027549;28;20116;-72
2022/01/04 12:08:33;;;;;;;4.73;1.20;;;6.00;99.90;;;;;;5022868;28;20068;-72
2022/01/04 12:11:02;;;;;;;3.87;1.10;;;6.00;99.90;;;;;;5026387;28;20057;-73
2022/01/04 12:13:50;;;;;;;6.23;1.00;;;5.90;99.90;;;;;;5042220;28;20053;-73
2022/01/04 12:16:42;;;;;;;6.83;0.87;;;5.70;99.90;;;;;;5027063;28;20401;-73
2022/01/04 12:19:11;;;;;;;8.47;1.40;;;5.60;99.90;;;;;;5016331;28;20045;-73
2022/01/04 12:21:42;;;;;;;6.37;1.20;;;5.50;99.90;;;;;;5045494;28;20084;-73
2022/01/04 12:24:11;;;;;;;7.53;0.97;;;5.50;99.90;;;;;;5033120;28;20048;-73
2022/01/04 12:26:38;;;;;;;4.73;0.70;;;5.40;99.90;;;;;;5025452;28;20045;-73
2022/01/04 12:29:10;;;;;;;5.80;0.83;;;5.40;99.90;;;;;;5026148;28;20128;-73
2022/01/04 12:31:51;;;;;;;7.83;1.00;;;5.40;99.90;;;;;;5023579;28;20049;-73
2022/01/04 12:34:41;;;;;;;4.97;0.93;;;5.40;99.90;;;;;;5045465;28;20416;-73
2022/01/04 12:37:18;;;;;;;7.18;1.65;;;5.50;99.90;;;;;;5024219;28;20515;-73
2022/01/04 12:39:45;;;;;;;6.73;1.20;;;5.40;99.90;;;;;;5024768;28;20053;-73
2022/01/04 12:42:15;;;;;;;7.10;0.80;;;5.60;99.90;;;;;;5013636;28;20091;-73
2022/01/04 12:44:43;;;;;;;5.65;1.05;;;5.60;99.90;;;;;;5024765;28;20416;-73
2022/01/04 12:47:10;;;;;;;5.20;1.10;;;5.70;99.90;;;;;;5009598;28;20493;-73
2022/01/04 12:49:37;;;;;;;8.00;1.33;;;5.80;99.90;;;;;;5018915;28;20103;-73
2022/01/04 12:52:08;;;;;;;3.90;0.60;;;5.80;99.90;;;;;;5027874;28;20060;-73
2022/01/04 12:54:39;;;;;;;6.73;0.90;;;5.90;99.90;;;;;;5038229;28;20044;-73
2022/01/04 12:57:07;;;;;;;6.13;1.13;;;5.90;99.90;;;;;;5025753;28;20049;-72
2022/01/04 12:59:41;;;;;;;8.90;1.77;;;5.90;99.90;;;;;;5042997;28;20041;-72
2022/01/04 13:02:15;;;;;;;6.67;1.50;;;5.90;99.90;;;;;;5038050;28;20056;-72